Time;durP1;ratioP1;P1;durP2;ratioP2;P2;SDS_P1;SDS_P2;PMS_P1;PMS_P2;Temp;Humidity;BMP_temperature;BMP_pressure;BME280_temperature;BME280_humidity;BME280_pressure;Samples;Min_cycle;Max_cycle;Signal;HPM_P1;HPM_P2
2022/01/20 00:01:49;;;;;;;8.82;1.80;;;;;;;;;;5051456;28;20053;-73
2022/01/20 00:09:46;;;;;;;11.70;2.05;;;;;;;;;;5052734;28;20033;-74
2022/01/20 00:26:00;;;;;;;20.13;3.42;;;;;;;;;;5068473;28;20075;-76
2022/01/20 00:28:49;;;;;;;18.77;5.00;;;;;;;;;;5051487;28;20048;-75
2022/01/20 00:34:16;;;;;;;12.85;3.20;;;;;;;;;;5053043;28;20505;-75
2022/01/20 00:39:29;;;;;;;17.15;3.53;;;;;;;;;;5054256;28;20036;-72
2022/01/20 00:41:58;;;;;;;19.10;4.10;;;;;;;;;;5056612;28;20055;-76
2022/01/20 00:44:26;;;;;;;16.77;3.13;;;;;;;;;;5056508;28;20063;-74
2022/01/20 00:46:53;;;;;;;21.98;4.68;;;;;;;;;;5054580;28;20033;-75
2022/01/20 00:49:20;;;;;;;24.17;3.72;;;;;;;;;;5055186;28;20021;-74
2022/01/20 00:51:49;;;;;;;22.50;4.38;;;;;;;;;;5055133;28;20029;-74
2022/01/20 00:54:16;;;;;;;16.05;3.55;;;;;;;;;;5055033;28;20155;-73
2022/01/20 00:56:43;;;;;;;22.25;3.88;;;;;;;;;;5055767;28;20060;-74
2022/01/20 00:59:10;;;;;;;20.17;3.92;;;;;;;;;;5056135;28;20025;-74
2022/01/20 01:01:37;;;;;;;21.75;4.20;;;;;;;;;;5056181;28;20021;-76
2022/01/20 01:04:05;;;;;;;25.20;4.40;;;;;;;;;;5055885;28;20052;-72
2022/01/20 01:06:48;;;;;;;15.27;2.90;;;;;;;;;;5056126;28;20037;-74
2022/01/20 01:09:15;;;;;;;17.17;3.13;;;;;;;;;;5056017;28;20439;-73
2022/01/20 01:11:45;;;;;;;17.15;3.33;;;;;;;;;;5054743;28;20025;-73
2022/01/20 01:14:13;;;;;;;18.23;3.37;;;;;;;;;;5055844;28;20170;-73
2022/01/20 01:22:21;;;;;;;23.35;4.40;;;;;;;;;;5056052;28;20028;-73
2022/01/20 01:24:53;;;;;;;18.08;3.35;;;;;;;;;;5056802;28;20108;-74
2022/01/20 01:27:22;;;;;;;18.10;3.10;;;;;;;;;;5055702;28;20466;-75
2022/01/20 01:32:27;;;;;;;14.93;2.80;;;;;;;;;;5055953;28;20032;-73
2022/01/20 01:34:54;;;;;;;13.75;2.70;;;;;;;;;;5055239;28;20021;-73
2022/01/20 01:40:08;;;;;;;14.25;2.78;;;;;;;;;;5055432;28;20025;-73
2022/01/20 01:42:47;;;;;;;15.10;2.70;;;;;;;;;;5055407;28;20075;-74
2022/01/20 01:45:20;;;;;;;15.35;3.05;;;;;;;;;;5054077;28;20070;-73
2022/01/20 01:47:48;;;;;;;15.70;2.63;;;;;;;;;;5055268;28;20048;-74
2022/01/20 01:50:34;;;;;;;12.18;2.83;;;;;;;;;;5054623;28;20021;-74
2022/01/20 01:53:06;;;;;;;19.08;3.28;;;;;;;;;;5053825;28;20026;-72
2022/01/20 01:55:34;;;;;;;18.05;3.22;;;;;;;;;;5055087;28;20017;-73
2022/01/20 01:58:03;;;;;;;11.52;3.22;;;;;;;;;;5055074;28;20499;-72
2022/01/20 02:00:50;;;;;;;12.88;2.67;;;;;;;;;;5053864;28;20047;-73
2022/01/20 02:03:18;;;;;;;15.38;2.85;;;;;;;;;;5054954;28;20017;-74
2022/01/20 02:06:43;;;;;;;17.58;3.40;;;;;;;;;;5037261;28;20520;-72
2022/01/20 02:08:48;;;;;;;11.30;2.63;;;;;;;;;;5057034;28;20029;-72
2022/01/20 02:19:34;;;;;;;13.82;2.58;;;;;;;;;;5054754;28;20036;-72
2022/01/20 02:22:02;;;;;;;12.20;2.50;;;;;;;;;;5053368;28;20025;-73
2022/01/20 02:24:30;;;;;;;11.23;2.80;;;;;;;;;;5054527;28;20021;-72
2022/01/20 02:26:57;;;;;;;9.23;2.22;;;;;;;;;;5053223;28;20482;-72
2022/01/20 02:29:25;;;;;;;11.50;2.28;;;;;;;;;;5053131;28;20508;-73
2022/01/20 02:31:59;;;;;;;12.77;2.72;;;;;;;;;;5054503;28;20099;-73
2022/01/20 02:34:31;;;;;;;10.63;2.42;;;;;;;;;;5054357;28;20366;-73
2022/01/20 02:37:02;;;;;;;13.25;2.50;;;;;;;;;;5053273;28;20389;-74
2022/01/20 02:44:51;;;;;;;11.65;2.70;;;;;;;;;;5054255;28;20040;-74
2022/01/20 02:47:19;;;;;;;9.30;2.60;;;;;;;;;;5052884;28;20500;-75
2022/01/20 02:49:47;;;;;;;11.50;2.70;;;;;;;;;;5053970;28;20493;-74
2022/01/20 02:52:14;;;;;;;13.32;2.30;;;;;;;;;;5054024;28;20025;-73
2022/01/20 02:54:41;;;;;;;13.45;2.20;;;;;;;;;;5054053;28;20028;-74
2022/01/20 02:57:09;;;;;;;10.23;2.13;;;;;;;;;;5053900;28;20386;-74
2022/01/20 02:59:36;;;;;;;12.18;2.72;;;;;;;;;;5053836;28;20020;-73
2022/01/20 03:02:04;;;;;;;12.35;2.40;;;;;;;;;;5051714;28;20021;-73
2022/01/20 03:04:31;;;;;;;14.82;2.42;;;;;;;;;;5052315;28;20051;-74
2022/01/20 03:06:59;;;;;;;10.35;2.45;;;;;;;;;;5052452;28;20500;-73
2022/01/20 03:09:27;;;;;;;11.10;2.25;;;;;;;;;;5053710;28;20123;-72
2022/01/20 03:11:54;;;;;;;12.88;2.45;;;;;;;;;;5053564;28;20025;-72
2022/01/20 03:14:21;;;;;;;11.95;2.90;;;;;;;;;;5053632;28;20367;-74
2022/01/20 03:16:49;;;;;;;7.82;2.47;;;;;;;;;;5053490;28;20079;-74
2022/01/20 03:19:17;;;;;;;13.18;2.83;;;;;;;;;;5053461;28;20025;-74
2022/01/20 03:21:44;;;;;;;12.75;2.55;;;;;;;;;;5053397;28;20021;-73
2022/01/20 03:24:20;;;;;;;10.23;2.83;;;;;;;;;;5053330;28;20031;-72
2022/01/20 03:26:48;;;;;;;11.35;2.05;;;;;;;;;;5053398;28;20017;-72
2022/01/20 03:29:15;;;;;;;15.13;2.53;;;;;;;;;;5052052;28;20029;-72
2022/01/20 03:31:42;;;;;;;12.38;2.45;;;;;;;;;;5051945;28;20379;-73
2022/01/20 03:34:09;;;;;;;11.48;2.40;;;;;;;;;;5053311;28;20025;-73
2022/01/20 03:36:36;;;;;;;9.35;1.90;;;;;;;;;;5053108;28;20033;-73
2022/01/20 03:39:05;;;;;;;10.75;2.40;;;;;;;;;;5053120;28;20025;-73
2022/01/20 03:41:32;;;;;;;11.20;2.45;;;;;;;;;;5051793;28;20017;-75
2022/01/20 03:43:59;;;;;;;13.93;2.53;;;;;;;;;;5051995;28;20021;-75
2022/01/20 03:46:26;;;;;;;14.60;2.97;;;;;;;;;;5051863;28;20401;-76
2022/01/20 03:49:02;;;;;;;12.85;2.80;;;;;;;;;;5051860;28;20025;-76
2022/01/20 03:51:29;;;;;;;16.20;2.80;;;;;;;;;;5053109;28;20099;-76
2022/01/20 03:53:57;;;;;;;11.27;2.40;;;;;;;;;;5053064;28;20104;-77
2022/01/20 03:56:24;;;;;;;10.98;2.42;;;;;;;;;;5052954;28;20029;-75
2022/01/20 03:58:52;;;;;;;12.73;2.42;;;;;;;;;;5052847;28;20108;-76
2022/01/20 04:01:20;;;;;;;8.60;2.03;;;;;;;;;;5052887;28;20017;-76
2022/01/20 04:03:47;;;;;;;11.70;2.60;;;;;;;;;;5052587;28;20067;-76
2022/01/20 04:06:15;;;;;;;14.07;2.83;;;;;;;;;;5052964;28;20498;-75
2022/01/20 04:08:43;;;;;;;9.63;2.63;;;;;;;;;;5052817;28;20029;-76
2022/01/20 04:11:12;;;;;;;12.90;2.10;;;;;;;;;;5052872;28;20047;-76
2022/01/20 04:13:39;;;;;;;7.85;1.73;;;;;;;;;;5054676;28;20437;-76
2022/01/20 04:16:19;;;;;;;8.88;2.40;;;;;;;;;;5055802;28;20082;-76
2022/01/20 04:18:56;;;;;;;11.88;2.58;;;;;;;;;;5057356;28;20027;-76
2022/01/20 04:21:27;;;;;;;13.30;2.35;;;;;;;;;;5057056;28;20428;-76
2022/01/20 04:23:55;;;;;;;10.90;2.42;;;;;;;;;;5056789;28;20013;-76
2022/01/20 04:26:23;;;;;;;11.48;2.60;;;;;;;;;;5055436;28;20021;-78
2022/01/20 04:28:56;;;;;;;11.52;2.15;;;;;;;;;;5057208;28;20032;-79
2022/01/20 04:31:24;;;;;;;15.32;3.03;;;;;;;;;;5056956;28;20072;-78
2022/01/20 04:33:52;;;;;;;10.20;2.13;;;;;;;;;;5056743;28;20393;-79
2022/01/20 04:36:20;;;;;;;8.50;1.80;;;;;;;;;;5057038;28;20102;-79
2022/01/20 04:38:47;;;;;;;11.82;2.20;;;;;;;;;;5055753;28;20032;-80
2022/01/20 04:41:14;;;;;;;11.52;2.03;;;;;;;;;;5055754;28;20021;-79
2022/01/20 04:43:44;;;;;;;10.80;1.90;;;;;;;;;;5057259;28;20424;-78
2022/01/20 04:46:33;;;;;;;9.63;1.73;;;;;;;;;;5056954;28;20385;-79
2022/01/20 04:57:01;;;;;;;9.75;2.03;;;;;;;;;;5055321;28;20025;-76
2022/01/20 04:57:22;;;;;;;12.48;2.50;;;;;;;;;;5057016;28;20069;-78
2022/01/20 04:59:50;;;;;;;14.30;3.22;;;;;;;;;;5054956;28;20032;-79
2022/01/20 05:02:17;;;;;;;12.73;2.72;;;;;;;;;;5056403;28;20032;-76
2022/01/20 05:04:45;;;;;;;14.90;2.47;;;;;;;;;;5055939;28;20040;-76
2022/01/20 05:07:20;;;;;;;12.30;2.38;;;;;;;;;;5054851;28;20108;-77
2022/01/20 05:09:47;;;;;;;11.38;2.38;;;;;;;;;;5056413;28;20420;-77
2022/01/20 05:12:23;;;;;;;15.90;3.33;;;;;;;;;;5056089;28;20033;-78
2022/01/20 05:14:50;;;;;;;18.25;2.90;;;;;;;;;;5055915;28;20021;-79
2022/01/20 05:17:17;;;;;;;13.82;2.85;;;;;;;;;;5055961;28;20064;-77
2022/01/20 05:19:44;;;;;;;14.35;3.03;;;;;;;;;;5055785;28;20087;-78
2022/01/20 05:22:11;;;;;;;18.20;2.95;;;;;;;;;;5055829;28;20457;-77
2022/01/20 05:24:39;;;;;;;12.40;2.95;;;;;;;;;;5054764;28;20025;-74
2022/01/20 05:27:06;;;;;;;15.60;3.10;;;;;;;;;;5055832;28;20402;-77
2022/01/20 05:29:33;;;;;;;18.92;3.50;;;;;;;;;;5054251;28;20025;-77
2022/01/20 05:32:00;;;;;;;12.18;3.13;;;;;;;;;;5054519;28;20074;-76
2022/01/20 05:34:27;;;;;;;15.27;3.85;;;;;;;;;;5054170;28;20045;-78
2022/01/20 05:36:55;;;;;;;15.40;2.72;;;;;;;;;;5054394;28;20033;-78
2022/01/20 05:39:22;;;;;;;14.90;3.15;;;;;;;;;;5054026;28;20031;-79
2022/01/20 05:41:49;;;;;;;16.30;3.22;;;;;;;;;;5055561;28;20029;-77
2022/01/20 05:44:16;;;;;;;16.42;3.28;;;;;;;;;;5055326;28;20025;-76
2022/01/20 05:46:48;;;;;;;15.90;3.13;;;;;;;;;;5055309;28;20021;-77
2022/01/20 05:49:20;;;;;;;14.70;3.15;;;;;;;;;;5054017;28;20053;-75
2022/01/20 05:51:49;;;;;;;17.05;3.38;;;;;;;;;;5053980;28;20025;-76
2022/01/20 05:54:16;;;;;;;12.32;3.35;;;;;;;;;;5053861;28;20083;-77
2022/01/20 05:56:43;;;;;;;14.15;2.90;;;;;;;;;;5054041;28;20394;-77
2022/01/20 05:59:11;;;;;;;13.90;2.80;;;;;;;;;;5054867;28;20021;-76
2022/01/20 06:01:38;;;;;;;15.35;3.40;;;;;;;;;;5053489;28;20027;-76
2022/01/20 06:04:08;;;;;;;13.98;3.28;;;;;;;;;;5054645;28;20052;-75
2022/01/20 06:06:36;;;;;;;13.43;2.88;;;;;;;;;;5053494;28;20028;-77
2022/01/20 06:09:04;;;;;;;15.48;2.97;;;;;;;;;;5054993;28;20070;-75
2022/01/20 06:11:32;;;;;;;11.35;2.60;;;;;;;;;;5053402;28;20025;-76
2022/01/20 06:13:59;;;;;;;13.02;3.03;;;;;;;;;;5054684;28;20079;-76
2022/01/20 06:16:26;;;;;;;12.20;3.15;;;;;;;;;;5054818;28;20493;-77
2022/01/20 06:18:54;;;;;;;13.30;3.45;;;;;;;;;;5053418;28;20378;-77
2022/01/20 06:21:23;;;;;;;14.70;3.28;;;;;;;;;;5053124;28;20032;-76
2022/01/20 06:23:50;;;;;;;10.93;2.65;;;;;;;;;;5054544;28;20025;-77
2022/01/20 06:26:17;;;;;;;14.10;3.38;;;;;;;;;;5053233;28;20023;-76
2022/01/20 06:28:45;;;;;;;14.07;3.22;;;;;;;;;;5053185;28;20025;-80
2022/01/20 06:31:12;;;;;;;12.05;2.63;;;;;;;;;;5053200;28;20032;-77
2022/01/20 06:33:39;;;;;;;11.27;2.83;;;;;;;;;;5053236;28;20025;-77
2022/01/20 06:36:07;;;;;;;13.15;3.10;;;;;;;;;;5052786;28;20025;-76
2022/01/20 06:38:34;;;;;;;11.45;3.00;;;;;;;;;;5054183;28;20396;-76
2022/01/20 06:41:01;;;;;;;11.30;2.50;;;;;;;;;;5052914;28;20371;-75
2022/01/20 06:43:28;;;;;;;11.05;2.55;;;;;;;;;;5052855;28;20025;-75
2022/01/20 06:45:56;;;;;;;11.88;2.60;;;;;;;;;;5054185;28;20096;-77
2022/01/20 06:48:23;;;;;;;12.38;2.80;;;;;;;;;;5052860;28;20486;-77
2022/01/20 06:50:50;;;;;;;14.80;2.80;;;;;;;;;;5052846;28;20025;-75
2022/01/20 06:53:17;;;;;;;12.82;2.95;;;;;;;;;;5052675;28;20025;-78
2022/01/20 06:55:44;;;;;;;11.27;2.78;;;;;;;;;;5053956;28;20025;-76
2022/01/20 06:58:12;;;;;;;11.40;3.17;;;;;;;;;;5053805;28;20025;-75
2022/01/20 07:00:39;;;;;;;11.15;2.80;;;;;;;;;;5053866;28;20393;-76
2022/01/20 07:03:06;;;;;;;11.50;2.63;;;;;;;;;;5053734;28;20489;-76
2022/01/20 07:05:33;;;;;;;9.88;2.70;;;;;;;;;;5053457;28;20482;-76
2022/01/20 07:08:02;;;;;;;11.20;2.40;;;;;;;;;;5052502;28;20091;-77
2022/01/20 07:10:32;;;;;;;16.77;2.78;;;;;;;;;;5053792;28;20028;-76
2022/01/20 07:12:59;;;;;;;10.38;2.50;;;;;;;;;;5052900;28;20025;-77
2022/01/20 07:15:26;;;;;;;11.15;2.33;;;;;;;;;;5053657;28;20025;-78
2022/01/20 07:17:54;;;;;;;13.82;2.63;;;;;;;;;;5053339;28;20025;-77
2022/01/20 07:20:22;;;;;;;10.65;2.50;;;;;;;;;;5052268;28;20025;-76
2022/01/20 07:22:49;;;;;;;12.60;2.60;;;;;;;;;;5051945;28;20103;-78
2022/01/20 07:25:18;;;;;;;;;;;;;;;;;;5053623;28;20029;-80
2022/01/20 07:27:47;;;;;;;12.50;2.53;;;;;;;;;;5053217;28;19951;-78
2022/01/20 07:30:14;;;;;;;10.27;2.40;;;;;;;;;;5035450;28;20060;-76
2022/01/20 07:32:41;;;;;;;11.88;3.17;;;;;;;;;;5053028;28;20025;-77
2022/01/20 07:35:08;;;;;;;11.05;2.88;;;;;;;;;;5051703;28;20452;-76
2022/01/20 07:37:36;;;;;;;11.15;2.85;;;;;;;;;;5053009;28;20456;-76
2022/01/20 07:40:03;;;;;;;9.82;2.33;;;;;;;;;;5051900;28;20550;-78
2022/01/20 07:42:30;;;;;;;9.52;2.47;;;;;;;;;;5051669;28;20497;-75
2022/01/20 07:44:58;;;;;;;11.35;3.10;;;;;;;;;;5052065;28;20021;-76
2022/01/20 07:47:25;;;;;;;8.82;2.30;;;;;;;;;;5052818;28;20505;-77
2022/01/20 07:49:52;;;;;;;10.18;2.65;;;;;;;;;;5051820;28;20082;-76
2022/01/20 07:52:19;;;;;;;10.48;2.83;;;;;;;;;;5051829;28;20025;-77
2022/01/20 07:54:49;;;;;;;10.23;2.53;;;;;;;;;;5053272;28;20031;-76
2022/01/20 07:57:16;;;;;;;11.45;2.92;;;;;;;;;;5052987;28;20033;-77
2022/01/20 07:59:44;;;;;;;11.73;2.03;;;;;;;;;;5052891;28;20029;-78
2022/01/20 08:02:11;;;;;;;16.50;2.65;;;;;;;;;;5052966;28;20053;-77
2022/01/20 08:04:38;;;;;;;15.70;2.67;;;;;;;;;;5051268;28;20049;-76
2022/01/20 08:07:05;;;;;;;15.65;3.28;;;;;;;;;;5053003;28;20044;-78
2022/01/20 08:09:32;;;;;;;13.98;2.60;;;;;;;;;;5051550;28;20057;-76
2022/01/20 08:11:59;;;;;;;11.27;2.65;;;;;;;;;;5051542;28;20498;-77
2022/01/20 08:14:28;;;;;;;11.77;2.40;;;;;;;;;;5051481;28;20036;-76
2022/01/20 08:16:55;;;;;;;12.77;2.50;;;;;;;;;;5051641;28;20447;-77
2022/01/20 08:19:22;;;;;;;14.07;3.42;;;;;;;;;;5051387;28;20025;-79
2022/01/20 08:21:50;;;;;;;19.10;3.10;;;;;;;;;;5051442;28;20028;-78
2022/01/20 08:24:17;;;;;;;15.57;3.25;;;;;;;;;;5052668;28;20020;-77
2022/01/20 08:26:45;;;;;;;12.88;2.92;;;;;;;;;;5052673;28;20021;-77
2022/01/20 08:29:13;;;;;;;17.15;3.50;;;;;;;;;;5051487;28;20151;-78
2022/01/20 08:31:40;;;;;;;17.98;4.30;;;;;;;;;;5051436;28;20032;-78
2022/01/20 08:34:07;;;;;;;16.63;3.15;;;;;;;;;;5051294;28;20055;-77
2022/01/20 08:36:34;;;;;;;19.83;8.45;;;;;;;;;;5051743;28;20456;-78
2022/01/20 08:39:01;;;;;;;14.55;2.90;;;;;;;;;;5052479;28;20017;-78
2022/01/20 08:41:28;;;;;;;16.15;5.22;;;;;;;;;;5052538;28;20017;-78
2022/01/20 08:43:55;;;;;;;17.48;5.30;;;;;;;;;;5051296;28;20021;-79
2022/01/20 08:46:25;;;;;;;21.75;8.13;;;;;;;;;;5051485;28;20051;-78
2022/01/20 08:48:52;;;;;;;15.02;4.65;;;;;;;;;;5051290;28;20104;-79
2022/01/20 08:51:19;;;;;;;19.23;7.22;;;;;;;;;;5052622;28;20021;-78
2022/01/20 08:53:46;;;;;;;16.92;3.40;;;;;;;;;;5052564;28;20083;-78
2022/01/20 08:56:13;;;;;;;22.92;6.70;;;;;;;;;;5052454;28;20028;-79
2022/01/20 08:58:40;;;;;;;20.08;7.30;;;;;;;;;;5052432;28;20099;-79
2022/01/20 09:01:08;;;;;;;20.15;4.25;;;;;;;;;;5053745;28;20029;-78
2022/01/20 09:03:35;;;;;;;21.00;4.07;;;;;;;;;;5056037;28;20033;-79
2022/01/20 09:06:06;;;;;;;19.85;4.13;;;;;;;;;;5054876;28;20490;-79
2022/01/20 09:08:33;;;;;;;18.17;3.92;;;;;;;;;;5056046;28;20063;-76
2022/01/20 09:11:01;;;;;;;18.65;5.07;;;;;;;;;;5054741;28;20032;-80
2022/01/20 09:16:14;;;;;;;21.88;4.40;;;;;;;;;;5056182;28;20064;-76
2022/01/20 09:18:42;;;;;;;17.60;4.10;;;;;;;;;;5054479;28;20033;-78
2022/01/20 09:21:10;;;;;;;17.88;4.65;;;;;;;;;;5055506;28;20021;-76
2022/01/20 09:23:37;;;;;;;18.40;4.70;;;;;;;;;;5055769;28;20482;-78
2022/01/20 09:26:04;;;;;;;18.23;4.18;;;;;;;;;;5055717;28;20018;-79
2022/01/20 09:28:31;;;;;;;16.13;4.50;;;;;;;;;;5054362;28;20406;-79
2022/01/20 09:31:00;;;;;;;18.90;3.45;;;;;;;;;;5054291;28;20036;-78
2022/01/20 09:33:29;;;;;;;17.42;3.33;;;;;;;;;;5054560;28;20024;-80
2022/01/20 09:35:59;;;;;;;21.40;4.18;;;;;;;;;;5055394;28;20024;-76
2022/01/20 09:38:27;;;;;;;15.68;3.83;;;;;;;;;;5054184;28;20067;-78
2022/01/20 09:40:55;;;;;;;22.35;4.18;;;;;;;;;;5054639;28;20032;-79
2022/01/20 09:43:22;;;;;;;16.23;4.13;;;;;;;;;;5056133;28;20021;-80
2022/01/20 09:45:55;;;;;;;19.67;3.78;;;;;;;;;;5054875;28;20021;-81
2022/01/20 09:48:26;;;;;;;22.55;4.68;;;;;;;;;;5055091;28;20108;-79
2022/01/20 09:50:55;;;;;;;15.40;3.67;;;;;;;;;;5056162;28;20025;-79
2022/01/20 09:53:24;;;;;;;17.42;3.38;;;;;;;;;;5054298;28;20087;-79
2022/01/20 09:55:51;;;;;;;21.08;5.05;;;;;;;;;;5056156;28;20393;-80
2022/01/20 09:58:20;;;;;;;18.90;4.20;;;;;;;;;;5055357;28;20072;-79
2022/01/20 10:00:48;;;;;;;19.90;4.70;;;;;;;;;;5053994;28;20539;-80
2022/01/20 10:03:16;;;;;;;15.50;3.50;;;;;;;;;;5055984;28;20025;-80
2022/01/20 10:05:43;;;;;;;24.48;4.78;;;;;;;;;;5055698;28;20116;-79
2022/01/20 10:08:10;;;;;;;21.80;4.40;;;;;;;;;;5054828;28;20044;-80
2022/01/20 10:10:56;;;;;;;16.48;3.25;;;;;;;;;;5053676;28;20017;-81
2022/01/20 10:13:24;;;;;;;19.33;3.90;;;;;;;;;;5054159;28;20104;-81
2022/01/20 10:15:57;;;;;;;15.57;3.83;;;;;;;;;;5054154;28;20048;-80
2022/01/20 10:18:24;;;;;;;21.35;3.67;;;;;;;;;;5053960;28;20029;-79
2022/01/20 10:21:01;;;;;;;18.67;3.42;;;;;;;;;;5054300;28;20492;-79
2022/01/20 10:23:29;;;;;;;19.75;3.55;;;;;;;;;;5054256;28;20028;-79
2022/01/20 10:26:14;;;;;;;18.15;3.95;;;;;;;;;;5055494;28;20032;-80
2022/01/20 10:28:53;;;;;;;13.65;2.78;;;;;;;;;;5055455;28;20032;-81
2022/01/20 10:31:31;;;;;;;14.82;3.25;;;;;;;;;;5053871;28;20029;-79
2022/01/20 10:33:58;;;;;;;17.20;3.20;;;;;;;;;;5055243;28;20155;-80
2022/01/20 10:36:25;;;;;;;17.73;2.95;;;;;;;;;;5054004;28;20025;-80
2022/01/20 10:39:01;;;;;;;17.20;3.17;;;;;;;;;;5053648;28;20389;-81
2022/01/20 10:41:29;;;;;;;15.88;3.20;;;;;;;;;;5054875;28;20088;-82
2022/01/20 10:44:02;;;;;;;19.33;3.88;;;;;;;;;;5053953;28;20017;-79
2022/01/20 10:46:29;;;;;;;14.65;2.58;;;;;;;;;;5053425;28;20025;-81
2022/01/20 10:49:00;;;;;;;15.13;3.10;;;;;;;;;;5055016;28;20093;-80
2022/01/20 10:51:27;;;;;;;19.63;3.35;;;;;;;;;;5054438;28;20100;-80
2022/01/20 10:54:01;;;;;;;17.55;3.95;;;;;;;;;;5054324;28;20048;-77
2022/01/20 10:56:28;;;;;;;17.13;3.45;;;;;;;;;;5052958;28;20508;-79
2022/01/20 10:58:56;;;;;;;24.83;4.75;;;;;;;;;;5052872;28;20032;-78
2022/01/20 11:01:23;;;;;;;19.80;3.67;;;;;;;;;;5052790;28;20017;-76
2022/01/20 11:03:50;;;;;;;21.35;3.35;;;;;;;;;;5053819;28;20379;-79
2022/01/20 11:06:22;;;;;;;19.23;3.70;;;;;;;;;;5053882;28;20029;-78
2022/01/20 11:08:50;;;;;;;20.05;3.67;;;;;;;;;;5052783;28;20044;-78
2022/01/20 11:11:17;;;;;;;16.42;3.47;;;;;;;;;;5052696;28;20031;-79
2022/01/20 11:13:45;;;;;;;14.73;3.03;;;;;;;;;;5052862;28;20040;-78
2022/01/20 11:16:14;;;;;;;14.18;2.97;;;;;;;;;;5052718;28;20431;-78
2022/01/20 11:18:42;;;;;;;16.13;3.58;;;;;;;;;;5052555;28;20029;-79
2022/01/20 11:21:10;;;;;;;17.42;3.88;;;;;;;;;;5052728;28;20033;-78
2022/01/20 11:23:41;;;;;;;15.23;3.20;;;;;;;;;;5052165;28;20029;-80
2022/01/20 11:26:08;;;;;;;21.08;3.78;;;;;;;;;;5052492;28;20017;-78
2022/01/20 11:28:36;;;;;;;19.58;3.05;;;;;;;;;;5053684;28;20426;-80
2022/01/20 11:31:04;;;;;;;14.45;2.85;;;;;;;;;;5053752;28;20025;-81
2022/01/20 11:33:42;;;;;;;18.30;2.97;;;;;;;;;;5052361;28;20032;-79
2022/01/20 11:36:21;;;;;;;16.35;3.22;;;;;;;;;;5053966;28;20547;-79
2022/01/20 11:38:50;;;;;;;19.70;3.50;;;;;;;;;;5052055;28;20029;-78
2022/01/20 11:41:20;;;;;;;13.50;3.47;;;;;;;;;;5052314;28;20033;-80
2022/01/20 11:43:52;;;;;;;19.77;3.92;;;;;;;;;;5052346;28;20017;-79
2022/01/20 11:46:23;;;;;;;16.77;2.67;;;;;;;;;;5053445;28;20096;-80
2022/01/20 11:48:56;;;;;;;18.45;3.22;;;;;;;;;;5052158;28;20074;-80
2022/01/20 11:51:25;;;;;;;17.10;2.92;;;;;;;;;;5053435;28;20451;-76
2022/01/20 11:54:03;;;;;;;17.00;3.67;;;;;;;;;;5052008;28;20025;-79
2022/01/20 11:56:31;;;;;;;15.60;2.97;;;;;;;;;;5035593;28;20029;-79
2022/01/20 11:58:58;;;;;;;17.23;3.03;;;;;;;;;;5051814;28;20400;-78
2022/01/20 12:01:27;;;;;;;14.00;2.92;;;;;;;;;;5051855;28;20027;-79
2022/01/20 12:03:56;;;;;;;22.52;3.88;;;;;;;;;;5052967;28;20035;-79
2022/01/20 12:06:25;;;;;;;18.80;3.50;;;;;;;;;;5052093;28;20040;-80
2022/01/20 12:08:56;;;;;;;19.60;3.08;;;;;;;;;;5051728;28;20116;-79
2022/01/20 12:11:34;;;;;;;22.15;4.60;;;;;;;;;;5052978;28;20024;-80
2022/01/20 12:14:01;;;;;;;17.70;3.47;;;;;;;;;;5051811;28;20028;-80
2022/01/20 12:16:29;;;;;;;16.63;2.90;;;;;;;;;;5051583;28;20057;-80
2022/01/20 12:18:57;;;;;;;22.40;4.00;;;;;;;;;;5051780;28;20413;-79
2022/01/20 12:21:25;;;;;;;15.90;2.75;;;;;;;;;;5051645;28;20021;-79
2022/01/20 12:23:53;;;;;;;20.75;3.65;;;;;;;;;;5051770;28;20029;-78
2022/01/20 12:26:20;;;;;;;20.33;4.30;;;;;;;;;;5053024;28;20044;-78
2022/01/20 12:28:47;;;;;;;15.85;3.10;;;;;;;;;;5052924;28;20025;-79
2022/01/20 12:31:16;;;;;;;17.17;3.33;;;;;;;;;;5052908;28;20047;-79
2022/01/20 12:33:47;;;;;;;15.65;2.88;;;;;;;;;;5053226;28;20025;-79
2022/01/20 12:36:14;;;;;;;;;;;;;;;;;;5057340;28;20025;-77
2022/01/20 12:38:49;;;;;;;16.52;3.70;;;;;;;;;;5056772;28;19943;-80
2022/01/20 12:41:17;;;;;;;16.08;2.88;;;;;;;;;;5056792;28;20025;-78
2022/01/20 12:43:48;;;;;;;17.20;3.25;;;;;;;;;;5055451;28;20037;-78
2022/01/20 12:46:22;;;;;;;15.10;3.00;;;;;;;;;;5056645;28;20104;-77
2022/01/20 12:49:05;;;;;;;17.20;3.70;;;;;;;;;;5056709;28;20029;-78
2022/01/20 12:51:32;;;;;;;16.17;2.75;;;;;;;;;;5055249;28;20078;-79
2022/01/20 12:54:11;;;;;;;15.57;2.92;;;;;;;;;;5056533;28;20422;-79
2022/01/20 12:56:44;;;;;;;18.02;3.70;;;;;;;;;;5056507;28;20021;-78
2022/01/20 12:59:11;;;;;;;14.65;2.55;;;;;;;;;;5055075;28;20025;-78
2022/01/20 13:01:49;;;;;;;12.00;2.78;;;;;;;;;;5056369;28;20017;-78
2022/01/20 13:04:17;;;;;;;20.70;3.30;;;;;;;;;;5054729;28;20053;-78
2022/01/20 13:06:51;;;;;;;22.55;3.47;;;;;;;;;;5054849;28;20055;-77
2022/01/20 13:09:21;;;;;;;19.38;3.30;;;;;;;;;;5056281;28;20108;-78
2022/01/20 13:11:57;;;;;;;18.65;3.67;;;;;;;;;;5054870;28;20072;-78
2022/01/20 13:14:34;;;;;;;15.95;3.17;;;;;;;;;;5054875;28;20399;-79
2022/01/20 13:17:02;;;;;;;15.93;3.42;;;;;;;;;;5056066;28;20021;-78
2022/01/20 13:19:33;;;;;;;14.48;3.20;;;;;;;;;;5056046;28;20025;-79
2022/01/20 13:22:01;;;;;;;17.40;3.47;;;;;;;;;;5055995;28;20021;-79
2022/01/20 13:24:29;;;;;;;17.42;3.38;;;;;;;;;;5054628;28;20051;-79
2022/01/20 13:26:57;;;;;;;15.93;3.53;;;;;;;;;;5054655;28;20032;-78
2022/01/20 13:29:25;;;;;;;18.00;4.10;;;;;;;;;;5054812;28;20032;-77
2022/01/20 13:31:56;;;;;;;19.95;3.85;;;;;;;;;;5054580;28;20060;-77
2022/01/20 13:34:23;;;;;;;19.80;4.13;;;;;;;;;;5054581;28;20394;-79
2022/01/20 13:36:52;;;;;;;19.10;4.38;;;;;;;;;;5054407;28;20033;-78
2022/01/20 13:39:29;;;;;;;18.83;4.25;;;;;;;;;;5055547;28;20078;-78
2022/01/20 13:42:06;;;;;;;22.08;4.60;;;;;;;;;;5055666;28;20422;-78
2022/01/20 13:47:19;;;;;;;21.25;4.10;;;;;;;;;;5055089;28;20048;-79
2022/01/20 13:49:50;;;;;;;14.18;3.63;;;;;;;;;;5054285;28;20038;-79
2022/01/20 13:52:19;;;;;;;18.42;4.05;;;;;;;;;;5054088;28;20073;-79
2022/01/20 13:54:48;;;;;;;16.13;3.40;;;;;;;;;;5054285;28;20036;-78
2022/01/20 13:57:16;;;;;;;19.70;3.97;;;;;;;;;;5055372;28;20481;-77
2022/01/20 13:59:53;;;;;;;18.95;4.15;;;;;;;;;;5055310;28;20048;-78
2022/01/20 14:02:21;;;;;;;18.38;4.05;;;;;;;;;;5053900;28;20053;-78
2022/01/20 14:04:50;;;;;;;19.42;4.28;;;;;;;;;;5053737;28;20072;-78
2022/01/20 14:07:17;;;;;;;19.63;3.78;;;;;;;;;;5053980;28;20025;-78
2022/01/20 14:09:44;;;;;;;22.05;4.18;;;;;;;;;;5053718;28;20071;-78
2022/01/20 14:12:11;;;;;;;21.20;3.83;;;;;;;;;;5053797;28;20509;-78
2022/01/20 14:14:39;;;;;;;16.90;4.25;;;;;;;;;;5055075;28;20143;-78
2022/01/20 14:17:15;;;;;;;22.05;4.88;;;;;;;;;;5053636;28;20078;-77
2022/01/20 14:19:45;;;;;;;17.50;3.65;;;;;;;;;;5054848;28;20025;-78
2022/01/20 14:22:12;;;;;;;16.40;3.57;;;;;;;;;;5053546;28;20394;-77
2022/01/20 14:24:40;;;;;;;15.98;3.50;;;;;;;;;;5053451;28;20486;-77
2022/01/20 14:27:13;;;;;;;16.00;3.33;;;;;;;;;;5054769;28;20431;-78
2022/01/20 14:29:42;;;;;;;18.55;3.70;;;;;;;;;;5053473;28;20025;-78
2022/01/20 14:32:11;;;;;;;18.38;3.70;;;;;;;;;;5054611;28;20381;-78
2022/01/20 14:34:39;;;;;;;18.80;3.17;;;;;;;;;;5054642;28;20052;-78
2022/01/20 14:37:06;;;;;;;14.55;3.85;;;;;;;;;;5054544;28;20455;-79
2022/01/20 14:39:34;;;;;;;22.02;3.88;;;;;;;;;;5053140;28;20029;-78
2022/01/20 14:42:05;;;;;;;17.50;3.28;;;;;;;;;;5054474;28;20024;-78
2022/01/20 14:44:34;;;;;;;20.15;4.20;;;;;;;;;;5054482;28;20025;-78
2022/01/20 14:47:01;;;;;;;16.67;3.75;;;;;;;;;;5054358;28;20017;-77
2022/01/20 14:49:28;;;;;;;18.45;3.80;;;;;;;;;;5054259;28;20033;-78
2022/01/20 14:51:55;;;;;;;20.52;3.80;;;;;;;;;;5054421;28;20025;-78
2022/01/20 14:54:22;;;;;;;24.48;4.57;;;;;;;;;;5054269;28;20485;-79
2022/01/20 14:56:50;;;;;;;19.70;4.57;;;;;;;;;;5052727;28;20021;-78
2022/01/20 14:59:17;;;;;;;22.50;4.43;;;;;;;;;;5052049;28;20032;-78
2022/01/20 15:01:44;;;;;;;18.63;3.72;;;;;;;;;;5052744;28;20017;-78
2022/01/20 15:04:11;;;;;;;23.63;3.95;;;;;;;;;;5052646;28;20045;-78
2022/01/20 15:06:40;;;;;;;21.75;4.65;;;;;;;;;;5052756;28;20104;-79
2022/01/20 15:09:08;;;;;;;19.45;3.50;;;;;;;;;;5054164;28;20024;-78
2022/01/20 15:11:36;;;;;;;22.05;4.45;;;;;;;;;;5053885;28;20078;-78
2022/01/20 15:14:04;;;;;;;22.55;4.00;;;;;;;;;;5053870;28;20079;-78
2022/01/20 15:16:31;;;;;;;20.23;3.75;;;;;;;;;;5053805;28;20032;-78
2022/01/20 15:18:59;;;;;;;20.75;4.88;;;;;;;;;;5052394;28;20021;-78
2022/01/20 15:21:26;;;;;;;14.82;3.30;;;;;;;;;;5053688;28;20052;-78
2022/01/20 15:23:54;;;;;;;20.75;3.88;;;;;;;;;;5052509;28;20451;-78
2022/01/20 15:26:21;;;;;;;18.25;3.97;;;;;;;;;;5053650;28;20091;-78
2022/01/20 15:28:49;;;;;;;21.00;3.97;;;;;;;;;;5053657;28;20024;-79
2022/01/20 15:31:17;;;;;;;21.52;3.95;;;;;;;;;;5052360;28;20078;-78
2022/01/20 15:33:45;;;;;;;13.48;2.85;;;;;;;;;;5052232;28;20493;-77
2022/01/20 15:36:14;;;;;;;19.95;3.35;;;;;;;;;;5053551;28;20028;-79
2022/01/20 15:38:41;;;;;;;16.80;3.03;;;;;;;;;;5053377;28;20021;-78
2022/01/20 15:41:09;;;;;;;16.33;3.65;;;;;;;;;;5053518;28;20024;-79
2022/01/20 15:43:36;;;;;;;13.00;2.83;;;;;;;;;;5052174;28;20539;-78